Main page
METAR-TAF:

METAR-TAF

Airports :

Oxford Airport

Oxford, England

latitude: 51-50-13N, longitude: 1-19-12W, elevation: 82 m

Current weather observation

The report was made 37 minutes ago, at 20:50 UTC
Wind 4 kt from the East
Temperature 14°C
Humidity 72%
Pressure 1019 hPa
Visibility 10 km or more
no clouds below 1500 m and no cumulonimbus

METAR: EGTK 202050Z 09004KT CAVOK 14/09 Q1019

Time: 22:27 (21:27 UTC)

Forecast

The report was made 4 hours and 29 minutes ago, at 16:58 UTC
Forecast valid from 20 at 18 UTC to 20 at 22 UTC
Wind 5 kt from the South/Southeast
Visibility 10 km or more
Few clouds at a height of 3000 ft

TAF: EGTK 201658Z 2018/2022 15005KT 9999 FEW030

Weather observations and forecasts of more than 4000 airports (METAR and TAF reports).

The available stations are represented by yellow and red dots on the map.

Hover mouse over dot to see the name of the station.

Then click to see weather observations and forecasts.

To change the map : click on the green buttons with a black cross to zoom in, on the green button with a dash to zoom out, or on the green arrows for adjacent maps.


METAR-TAF: